createdAt,value
2023-02-09T00:00:53.758Z,4.25
2023-02-09T00:01:54.649Z,4.19
2023-02-09T00:02:55.475Z,4.12
2023-02-09T00:03:56.405Z,4.12
2023-02-09T00:04:57.255Z,4.19
2023-02-09T00:05:58.110Z,4.25
2023-02-09T00:07:00.576Z,4.25
2023-02-09T00:07:59.595Z,4.31
2023-02-09T00:09:00.427Z,4.19
2023-02-09T00:10:01.283Z,4.12
2023-02-09T00:11:02.130Z,4.06
2023-02-09T00:12:03.048Z,3.94
2023-02-09T00:13:03.831Z,3.94
2023-02-09T00:14:04.679Z,3.94
2023-02-09T00:15:05.524Z,3.94
2023-02-09T00:16:06.439Z,3.88
2023-02-09T00:17:07.301Z,3.94
2023-02-09T00:18:08.153Z,4.00
2023-02-09T00:19:09.019Z,4.00
2023-02-09T00:20:09.860Z,4.06
2023-02-09T00:21:10.726Z,4.00
2023-02-09T00:22:11.565Z,4.00
2023-02-09T00:23:12.437Z,4.00
2023-02-09T00:24:13.276Z,3.94
2023-02-09T00:25:14.121Z,3.88
2023-02-09T00:26:14.973Z,3.88
2023-02-09T00:27:15.848Z,3.88
2023-02-09T00:28:16.650Z,3.81
2023-02-09T00:29:17.474Z,3.81
2023-02-09T00:30:18.358Z,3.81
2023-02-09T00:31:19.410Z,3.88
2023-02-09T00:32:19.795Z,3.88
2023-02-09T00:33:20.636Z,3.88
2023-02-09T00:34:21.496Z,3.94
2023-02-09T00:35:22.344Z,3.94
2023-02-09T00:36:23.215Z,3.88
2023-02-09T00:37:24.288Z,3.88
2023-02-09T00:38:24.662Z,3.88
2023-02-09T00:39:25.494Z,3.88
2023-02-09T00:40:26.353Z,3.88
2023-02-09T00:41:26.960Z,3.94
2023-02-09T00:42:27.833Z,3.94
2023-02-09T00:43:28.638Z,3.88
2023-02-09T00:44:29.483Z,3.81
2023-02-09T00:45:30.347Z,3.75
2023-02-09T00:46:31.186Z,3.75
2023-02-09T00:47:32.056Z,3.75
2023-02-09T00:48:32.910Z,3.69
2023-02-09T00:49:33.780Z,3.62
2023-02-09T00:50:34.636Z,3.62
2023-02-09T00:51:35.498Z,3.62
2023-02-09T00:52:36.349Z,3.62
2023-02-09T00:53:37.226Z,3.62
2023-02-09T00:54:38.058Z,3.56
2023-02-09T00:55:38.910Z,3.56
2023-02-09T00:56:39.763Z,3.56
2023-02-09T00:57:40.821Z,3.56
2023-02-09T00:58:41.596Z,3.50
2023-02-09T00:59:42.463Z,3.50
2023-02-09T01:00:43.657Z,3.50
2023-02-09T01:01:44.062Z,3.50
2023-02-09T01:02:44.916Z,3.50
2023-02-09T01:03:45.766Z,3.50
2023-02-09T01:04:46.657Z,3.44
2023-02-09T01:05:47.488Z,3.38
2023-02-09T01:06:48.340Z,3.38
2023-02-09T01:07:49.200Z,3.38
2023-02-09T01:08:50.072Z,3.44
2023-02-09T01:09:50.902Z,3.44
2023-02-09T01:10:51.772Z,3.50
2023-02-09T01:11:52.625Z,3.44
2023-02-09T01:12:54.358Z,3.38
2023-02-09T01:13:54.145Z,3.38
2023-02-09T01:14:55.053Z,3.31
2023-02-09T01:15:55.907Z,3.31
2023-02-09T01:16:56.837Z,3.31
2023-02-09T01:17:57.671Z,3.31
2023-02-09T01:18:58.534Z,3.25
2023-02-09T01:19:59.390Z,3.25
2023-02-09T01:21:00.244Z,3.25
2023-02-09T01:22:01.109Z,3.25
2023-02-09T01:23:02.273Z,3.25
2023-02-09T01:24:02.654Z,3.19
2023-02-09T01:25:03.488Z,3.12
2023-02-09T01:26:04.344Z,3.19
2023-02-09T01:27:05.192Z,3.19
2023-02-09T01:28:06.162Z,3.19
2023-02-09T01:29:06.959Z,3.19
2023-02-09T01:30:07.814Z,3.19
2023-02-09T01:31:08.763Z,3.19
2023-02-09T01:32:09.706Z,3.19
2023-02-09T01:33:10.770Z,3.12
2023-02-09T01:34:11.140Z,3.12
2023-02-09T01:35:11.998Z,3.12
2023-02-09T01:36:12.852Z,3.12
2023-02-09T01:37:13.698Z,3.06
2023-02-09T01:38:14.787Z,3.06
2023-02-09T01:39:15.147Z,3.00
2023-02-09T01:40:15.985Z,3.00
2023-02-09T01:41:16.839Z,3.06
2023-02-09T01:42:17.688Z,3.00
2023-02-09T01:43:18.565Z,3.00
2023-02-09T01:44:19.372Z,2.94
2023-02-09T01:45:20.235Z,2.94
2023-02-09T01:46:21.158Z,2.94
2023-02-09T01:47:21.575Z,2.94
2023-02-09T01:48:22.446Z,2.94
2023-02-09T01:49:23.298Z,2.94
2023-02-09T01:50:24.153Z,2.94
2023-02-09T01:51:25.026Z,2.88
2023-02-09T01:52:25.885Z,2.88
2023-02-09T01:53:26.742Z,2.94
2023-02-09T01:54:27.622Z,2.94
2023-02-09T01:55:28.449Z,2.94
2023-02-09T01:56:29.311Z,2.88
2023-02-09T01:57:30.153Z,2.88
2023-02-09T01:58:31.037Z,2.94
2023-02-09T01:59:31.833Z,2.88
2023-02-09T02:00:32.693Z,2.88
2023-02-09T02:01:33.617Z,2.88
2023-02-09T02:02:34.486Z,2.88
2023-02-09T02:03:35.770Z,2.88
2023-02-09T02:04:36.133Z,2.88
2023-02-09T02:05:36.989Z,2.88
2023-02-09T02:06:37.866Z,2.88
2023-02-09T02:07:38.703Z,2.88
2023-02-09T02:08:39.559Z,2.88
2023-02-09T02:09:40.427Z,2.81
2023-02-09T02:10:41.261Z,2.81
2023-02-09T02:11:42.119Z,2.81
2023-02-09T02:12:42.977Z,2.81
2023-02-09T02:13:44.930Z,2.81
2023-02-09T02:14:44.743Z,2.81
2023-02-09T02:15:45.639Z,2.81
2023-02-09T02:16:46.439Z,2.81
2023-02-09T02:17:47.283Z,2.81
2023-02-09T02:18:48.270Z,2.81
2023-02-09T02:19:49.124Z,2.81
2023-02-09T02:20:49.973Z,2.81
2023-02-09T02:21:50.825Z,2.88
2023-02-09T02:22:51.675Z,2.81
2023-02-09T02:23:52.758Z,2.75
2023-02-09T02:24:53.128Z,2.75
2023-02-09T02:25:53.967Z,2.75
2023-02-09T02:26:54.823Z,2.75
2023-02-09T02:27:55.716Z,2.75
2023-02-09T02:28:56.775Z,2.75
2023-02-09T02:29:57.052Z,2.75
2023-02-09T02:30:58.049Z,2.75
2023-02-09T02:31:58.457Z,2.75
2023-02-09T02:32:59.269Z,2.75
2023-02-09T02:34:00.127Z,2.75
2023-02-09T02:35:00.982Z,2.75
2023-02-09T02:36:01.837Z,2.69
2023-02-09T02:37:02.693Z,2.69
2023-02-09T02:38:03.555Z,2.69
2023-02-09T02:39:04.755Z,2.69
2023-02-09T02:40:05.130Z,2.69
2023-02-09T02:41:05.970Z,2.69
2023-02-09T02:42:06.837Z,2.69
2023-02-09T02:43:07.757Z,2.69
2023-02-09T02:44:08.634Z,2.69
2023-02-09T02:45:09.487Z,2.62
2023-02-09T02:46:10.424Z,2.62
2023-02-09T02:47:11.270Z,2.62
2023-02-09T02:48:12.130Z,2.62
2023-02-09T02:49:15.205Z,2.62
2023-02-09T02:50:13.609Z,2.62
2023-02-09T02:51:14.455Z,2.62
2023-02-09T02:52:15.313Z,2.62
2023-02-09T02:53:16.162Z,2.62
2023-02-09T02:54:17.026Z,2.62
2023-02-09T02:55:17.925Z,2.56
2023-02-09T02:56:18.750Z,2.56
2023-02-09T02:57:19.600Z,2.62
2023-02-09T02:58:20.456Z,2.56
2023-02-09T02:59:21.775Z,2.50
2023-02-09T03:00:22.067Z,2.56
2023-02-09T03:01:22.989Z,2.56
2023-02-09T03:02:23.777Z,2.50
2023-02-09T03:03:24.624Z,2.50
2023-02-09T03:04:25.485Z,2.56
2023-02-09T03:05:26.382Z,2.50
2023-02-09T03:06:27.197Z,2.50
2023-02-09T03:07:28.057Z,2.50
2023-02-09T03:08:28.919Z,2.44
2023-02-09T03:09:30.257Z,2.44
2023-02-09T03:10:30.642Z,2.50
2023-02-09T03:11:31.475Z,2.50
2023-02-09T03:12:32.325Z,2.50
2023-02-09T03:13:33.176Z,2.44
2023-02-09T03:14:34.069Z,2.44
2023-02-09T03:15:34.864Z,2.44
2023-02-09T03:16:35.728Z,2.44
2023-02-09T03:17:36.580Z,2.44
2023-02-09T03:18:37.431Z,2.44
2023-02-09T03:19:38.302Z,2.44
2023-02-09T03:20:39.154Z,2.44
2023-02-09T03:21:40.009Z,2.44
2023-02-09T03:22:40.862Z,2.44
2023-02-09T03:23:41.728Z,2.38
2023-02-09T03:24:42.586Z,2.38
2023-02-09T03:25:43.457Z,2.38
2023-02-09T03:26:44.296Z,2.38
2023-02-09T03:27:45.150Z,2.38
2023-02-09T03:28:46.006Z,2.38
2023-02-09T03:29:47.270Z,2.38
2023-02-09T03:30:48.002Z,2.31
2023-02-09T03:31:48.501Z,2.38
2023-02-09T03:32:49.319Z,2.31
2023-02-09T03:33:50.173Z,2.31
2023-02-09T03:34:51.035Z,2.31
2023-02-09T03:35:51.948Z,2.31
2023-02-09T03:36:52.785Z,2.31
2023-02-09T03:37:53.642Z,2.31
2023-02-09T03:38:54.487Z,2.31
2023-02-09T03:39:55.348Z,2.31
2023-02-09T03:40:56.222Z,2.31
2023-02-09T03:41:57.073Z,2.31
2023-02-09T03:42:57.930Z,2.31
2023-02-09T03:43:58.801Z,2.25
2023-02-09T03:44:59.770Z,2.25
2023-02-09T03:46:00.624Z,2.31
2023-02-09T03:47:01.499Z,2.31
2023-02-09T03:48:02.336Z,2.25
2023-02-09T03:49:03.206Z,2.31
2023-02-09T03:50:04.075Z,2.25
2023-02-09T03:51:04.967Z,2.31
2023-02-09T03:52:05.848Z,2.31
2023-02-09T03:53:06.710Z,2.25
2023-02-09T03:54:07.569Z,2.25
2023-02-09T03:55:08.747Z,2.25
2023-02-09T03:56:09.134Z,2.25
2023-02-09T03:57:09.963Z,2.19
2023-02-09T03:58:10.816Z,2.25
2023-02-09T03:59:11.667Z,2.19
2023-02-09T04:00:12.563Z,2.19
2023-02-09T04:01:13.424Z,2.19
2023-02-09T04:02:14.229Z,2.19
2023-02-09T04:03:15.067Z,2.12
2023-02-09T04:04:15.933Z,2.12
2023-02-09T04:05:16.806Z,2.19
2023-02-09T04:06:17.762Z,2.12
2023-02-09T04:07:18.607Z,2.12
2023-02-09T04:08:19.460Z,2.12
2023-02-09T04:09:20.313Z,2.12
2023-02-09T04:10:21.177Z,2.12
2023-02-09T04:11:23.459Z,2.12
2023-02-09T04:12:22.875Z,2.12
2023-02-09T04:13:23.722Z,2.12
2023-02-09T04:14:24.615Z,2.12
2023-02-09T04:15:25.650Z,2.06
2023-02-09T04:16:25.987Z,2.12
2023-02-09T04:17:26.816Z,2.06
2023-02-09T04:18:27.665Z,2.06
2023-02-09T04:19:28.514Z,2.06
2023-02-09T04:20:29.388Z,2.06
2023-02-09T04:21:30.241Z,2.06
2023-02-09T04:22:31.108Z,2.06
2023-02-09T04:23:31.958Z,2.06
2023-02-09T04:24:32.825Z,2.06
2023-02-09T04:25:33.656Z,2.06
2023-02-09T04:26:34.536Z,2.06
2023-02-09T04:27:35.364Z,2.06
2023-02-09T04:28:36.217Z,2.06
2023-02-09T04:29:37.078Z,2.06
2023-02-09T04:30:38.013Z,2.00
2023-02-09T04:31:38.913Z,2.06
2023-02-09T04:32:39.762Z,2.00
2023-02-09T04:33:40.612Z,2.06
2023-02-09T04:34:41.471Z,2.06
2023-02-09T04:35:42.734Z,2.06
2023-02-09T04:36:43.089Z,2.06
2023-02-09T04:37:43.958Z,2.06
2023-02-09T04:38:44.854Z,2.06
2023-02-09T04:39:45.705Z,2.06
2023-02-09T04:40:46.830Z,2.06
2023-02-09T04:41:47.263Z,2.06
2023-02-09T04:42:48.095Z,2.06
2023-02-09T04:43:48.968Z,2.06
2023-02-09T04:44:49.818Z,2.06
2023-02-09T04:45:50.738Z,2.00
2023-02-09T04:46:51.529Z,2.00
2023-02-09T04:47:52.382Z,2.00
2023-02-09T04:48:53.240Z,2.00
2023-02-09T04:49:54.111Z,2.00
2023-02-09T04:50:55.241Z,2.00
2023-02-09T04:51:55.607Z,2.00
2023-02-09T04:52:56.460Z,2.00
2023-02-09T04:53:57.343Z,2.00
2023-02-09T04:54:58.246Z,2.00
2023-02-09T04:55:59.108Z,2.00
2023-02-09T04:56:59.980Z,2.00
2023-02-09T04:58:00.813Z,1.94
2023-02-09T04:59:01.687Z,1.94
2023-02-09T05:00:02.594Z,1.94
2023-02-09T05:01:03.493Z,1.94
2023-02-09T05:02:04.283Z,1.94
2023-02-09T05:03:05.171Z,1.94
2023-02-09T05:04:05.999Z,1.88
2023-02-09T05:05:06.851Z,1.88
2023-02-09T05:06:07.725Z,1.88
2023-02-09T05:07:08.567Z,1.88
2023-02-09T05:08:09.428Z,1.88
2023-02-09T05:09:10.287Z,1.94
2023-02-09T05:10:11.138Z,1.88
2023-02-09T05:11:11.999Z,1.88
2023-02-09T05:12:12.873Z,1.88
2023-02-09T05:13:13.705Z,1.88
2023-02-09T05:14:14.577Z,1.88
2023-02-09T05:15:15.451Z,1.88
2023-02-09T05:16:16.766Z,1.94
2023-02-09T05:17:17.067Z,1.88
2023-02-09T05:18:17.932Z,1.88
2023-02-09T05:19:18.783Z,1.88
2023-02-09T05:20:19.652Z,1.94
2023-02-09T05:21:20.513Z,1.88
2023-02-09T05:22:21.363Z,1.88
2023-02-09T05:23:22.227Z,1.88
2023-02-09T05:24:23.070Z,1.88
2023-02-09T05:25:23.921Z,1.88
2023-02-09T05:26:24.784Z,1.88
2023-02-09T05:27:25.679Z,1.88
2023-02-09T05:28:26.609Z,1.88
2023-02-09T05:29:27.438Z,1.88
2023-02-09T05:30:28.293Z,1.88
2023-02-09T05:31:29.348Z,1.88
2023-02-09T05:32:29.672Z,1.88
2023-02-09T05:33:30.533Z,1.88
2023-02-09T05:34:31.381Z,1.88
2023-02-09T05:35:32.232Z,1.81
2023-02-09T05:36:33.094Z,1.81
2023-02-09T05:37:33.947Z,1.81
2023-02-09T05:38:34.807Z,1.75
2023-02-09T05:39:35.663Z,1.56
2023-02-09T05:40:36.515Z,1.88
2023-02-09T05:41:37.371Z,2.00
2023-02-09T05:42:38.248Z,2.12
2023-02-09T05:43:39.075Z,2.19
2023-02-09T05:44:39.930Z,2.19
2023-02-09T05:45:40.846Z,2.25
2023-02-09T05:46:41.741Z,2.25
2023-02-09T05:47:42.536Z,2.25
2023-02-09T05:48:43.418Z,2.25
2023-02-09T05:49:44.271Z,2.25
2023-02-09T05:50:45.432Z,2.25
2023-02-09T05:51:45.986Z,2.25
2023-02-09T05:52:46.839Z,2.25
2023-02-09T05:53:47.692Z,2.25
2023-02-09T05:54:48.556Z,2.25
2023-02-09T05:55:49.445Z,2.31
2023-02-09T05:56:50.718Z,2.25
2023-02-09T05:57:51.093Z,2.25
2023-02-09T05:58:51.931Z,2.25
2023-02-09T05:59:52.773Z,2.25
2023-02-09T06:00:53.625Z,2.25
2023-02-09T06:01:54.500Z,2.25
2023-02-09T06:02:55.328Z,2.19
2023-02-09T06:03:56.179Z,2.19
2023-02-09T06:04:57.032Z,2.25
2023-02-09T06:05:57.889Z,2.25
2023-02-09T06:06:58.752Z,2.25
2023-02-09T06:07:59.600Z,2.25
2023-02-09T06:09:00.462Z,2.19
2023-02-09T06:10:01.305Z,2.19
2023-02-09T06:11:02.163Z,2.19
2023-02-09T06:12:03.048Z,2.25
2023-02-09T06:13:03.896Z,2.25
2023-02-09T06:14:04.728Z,2.25
2023-02-09T06:15:05.585Z,2.25
2023-02-09T06:16:06.595Z,2.25
2023-02-09T06:17:07.441Z,2.19
2023-02-09T06:18:08.237Z,2.19
2023-02-09T06:19:09.092Z,2.19
2023-02-09T06:20:09.956Z,2.19
2023-02-09T06:21:10.815Z,2.19
2023-02-09T06:22:11.689Z,2.25
2023-02-09T06:23:12.537Z,2.19
2023-02-09T06:24:13.392Z,2.19
2023-02-09T06:25:14.250Z,2.19
2023-02-09T06:26:15.101Z,2.25
2023-02-09T06:27:15.981Z,2.25
2023-02-09T06:28:16.966Z,2.25
2023-02-09T06:29:17.777Z,2.25
2023-02-09T06:30:18.631Z,2.25
2023-02-09T06:31:19.606Z,2.25
2023-02-09T06:32:20.731Z,2.25
2023-02-09T06:33:21.036Z,2.25
2023-02-09T06:34:21.895Z,2.25
2023-02-09T06:35:22.749Z,2.25
2023-02-09T06:36:23.622Z,2.31
2023-02-09T06:37:24.468Z,2.31
2023-02-09T06:38:25.409Z,2.31
2023-02-09T06:39:26.268Z,2.25
2023-02-09T06:40:27.113Z,2.25
2023-02-09T06:41:27.972Z,2.31
2023-02-09T06:42:29.086Z,2.31
2023-02-09T06:43:29.434Z,2.31
2023-02-09T06:44:30.302Z,2.31
2023-02-09T06:45:31.159Z,2.31
2023-02-09T06:46:32.043Z,2.38
2023-02-09T06:47:32.888Z,2.31
2023-02-09T06:48:33.665Z,2.31
2023-02-09T06:49:34.626Z,2.31
2023-02-09T06:50:35.289Z,2.31
2023-02-09T06:51:36.265Z,2.31
2023-02-09T06:52:37.217Z,2.31
2023-02-09T06:53:38.225Z,2.31
2023-02-09T06:54:38.585Z,2.31
2023-02-09T06:55:39.447Z,2.31
2023-02-09T06:56:40.298Z,2.31
2023-02-09T06:57:41.157Z,2.31
2023-02-09T06:58:42.070Z,2.31
2023-02-09T06:59:42.875Z,2.31
2023-02-09T07:00:44.093Z,2.31
2023-02-09T07:01:44.577Z,2.38
2023-02-09T07:02:45.453Z,2.38
2023-02-09T07:03:45.945Z,2.44
2023-02-09T07:04:46.825Z,2.38
2023-02-09T07:05:47.675Z,2.31
2023-02-09T07:06:48.533Z,2.31
2023-02-09T07:07:49.395Z,2.31
2023-02-09T07:08:50.256Z,2.31
2023-02-09T07:09:51.120Z,2.31
2023-02-09T07:10:51.966Z,2.31
2023-02-09T07:11:52.845Z,2.38
2023-02-09T07:12:54.203Z,2.38
2023-02-09T07:13:54.587Z,2.38
2023-02-09T07:14:55.447Z,2.38
2023-02-09T07:15:56.324Z,2.44
2023-02-09T07:16:57.185Z,2.44
2023-02-09T07:17:58.765Z,2.44
2023-02-09T07:19:00.310Z,2.50
2023-02-09T07:19:59.243Z,2.50
2023-02-09T07:21:00.115Z,2.50
2023-02-09T07:22:00.950Z,2.56
2023-02-09T07:23:01.822Z,2.69
2023-02-09T07:24:02.678Z,2.81
2023-02-09T07:25:03.527Z,2.81
2023-02-09T07:26:04.395Z,2.88
2023-02-09T07:27:05.233Z,2.94
2023-02-09T07:28:06.222Z,3.06
2023-02-09T07:29:07.080Z,3.00
2023-02-09T07:30:07.919Z,3.06
2023-02-09T07:31:08.865Z,3.06
2023-02-09T07:32:09.807Z,3.12
2023-02-09T07:33:10.663Z,3.12
2023-02-09T07:34:11.438Z,3.12
2023-02-09T07:35:12.291Z,3.19
2023-02-09T07:36:13.171Z,3.12
2023-02-09T07:37:13.729Z,3.12
2023-02-09T07:38:14.696Z,3.06
2023-02-09T07:39:15.160Z,3.12
2023-02-09T07:40:16.175Z,3.12
2023-02-09T07:41:17.027Z,3.19
2023-02-09T07:42:17.880Z,3.25
2023-02-09T07:43:18.759Z,3.19
2023-02-09T07:44:19.625Z,3.12
2023-02-09T07:45:20.445Z,3.00
2023-02-09T07:46:21.351Z,2.94
2023-02-09T07:47:22.168Z,3.00
2023-02-09T07:48:23.210Z,3.12
2023-02-09T07:49:23.987Z,3.25
2023-02-09T07:50:24.838Z,3.25
2023-02-09T07:51:25.692Z,3.25
2023-02-09T07:52:26.541Z,3.31
2023-02-09T07:53:27.404Z,3.31
2023-02-09T07:54:28.252Z,3.38
2023-02-09T07:55:29.104Z,3.44
2023-02-09T07:56:29.971Z,3.44
2023-02-09T07:57:30.824Z,3.50
2023-02-09T07:58:31.691Z,3.56
2023-02-09T07:59:32.560Z,3.56
2023-02-09T08:00:33.386Z,3.62
2023-02-09T08:01:34.255Z,3.69
2023-02-09T08:02:35.134Z,3.75
2023-02-09T08:03:36.211Z,3.81
2023-02-09T08:04:36.504Z,3.88
2023-02-09T08:05:37.350Z,3.88
2023-02-09T08:06:42.644Z,3.94
2023-02-09T08:07:38.878Z,4.00
2023-02-09T08:08:40.192Z,4.06
2023-02-09T08:09:40.553Z,4.06
2023-02-09T08:10:41.408Z,4.12
2023-02-09T08:11:43.959Z,4.12
2023-02-09T08:12:42.947Z,4.19
2023-02-09T08:13:44.189Z,4.25
2023-02-09T08:14:44.562Z,4.25
2023-02-09T08:15:45.773Z,4.31
2023-02-09T08:16:46.247Z,4.38
2023-02-09T08:17:47.117Z,4.44
2023-02-09T08:18:48.229Z,4.56
2023-02-09T08:19:48.529Z,4.75
2023-02-09T08:20:49.377Z,4.75
2023-02-09T08:21:50.254Z,4.81
2023-02-09T08:22:51.132Z,4.81
2023-02-09T08:23:52.385Z,4.88
2023-02-09T08:24:52.744Z,4.94
2023-02-09T08:25:53.610Z,5.00
2023-02-09T08:26:54.462Z,5.06
2023-02-09T08:27:55.407Z,5.12
2023-02-09T08:28:56.289Z,5.12
2023-02-09T08:29:57.135Z,5.19
2023-02-09T08:30:58.007Z,5.25
2023-02-09T08:31:58.865Z,5.25
2023-02-09T08:32:59.672Z,5.31
2023-02-09T08:34:00.553Z,5.38
2023-02-09T08:35:01.342Z,5.44
2023-02-09T08:36:02.197Z,5.44
2023-02-09T08:37:03.076Z,5.44
2023-02-09T08:38:03.938Z,5.50
2023-02-09T08:39:05.189Z,5.50
2023-02-09T08:40:05.541Z,5.44
2023-02-09T08:41:06.429Z,5.44
2023-02-09T08:42:07.275Z,5.50
2023-02-09T08:43:08.354Z,5.56
2023-02-09T08:44:09.192Z,5.62
2023-02-09T08:45:09.563Z,5.62
2023-02-09T08:46:10.485Z,5.62
2023-02-09T08:47:11.384Z,5.75
2023-02-09T08:48:12.282Z,5.75
2023-02-09T08:49:13.211Z,5.75
2023-02-09T08:50:13.982Z,5.81
2023-02-09T08:51:14.843Z,5.88
2023-02-09T08:52:15.688Z,5.81
2023-02-09T08:53:16.540Z,5.81
2023-02-09T08:54:17.695Z,5.88
2023-02-09T08:55:18.053Z,5.94
2023-02-09T08:56:18.894Z,6.06
2023-02-09T08:57:19.753Z,6.12
2023-02-09T08:58:20.610Z,6.06
2023-02-09T08:59:21.688Z,6.06
2023-02-09T09:00:22.061Z,6.06
2023-02-09T09:01:23.021Z,6.06
2023-02-09T09:02:23.835Z,6.12
2023-02-09T09:03:24.739Z,6.12
2023-02-09T09:04:25.566Z,6.25
2023-02-09T09:05:26.413Z,6.31
2023-02-09T09:06:27.257Z,6.38
2023-02-09T09:07:28.112Z,6.44
2023-02-09T09:08:28.963Z,6.38
2023-02-09T09:09:29.842Z,6.38
2023-02-09T09:10:30.688Z,6.38
2023-02-09T09:11:31.538Z,6.38
2023-02-09T09:12:32.401Z,6.44
2023-02-09T09:13:33.271Z,6.44
2023-02-09T09:14:34.190Z,6.56
2023-02-09T09:15:35.071Z,6.69
2023-02-09T09:16:35.999Z,6.75
2023-02-09T09:17:36.799Z,6.88
2023-02-09T09:18:37.663Z,6.94
2023-02-09T09:19:38.731Z,7.00
2023-02-09T09:20:39.016Z,7.00
2023-02-09T09:21:39.895Z,7.00
2023-02-09T09:22:40.738Z,7.00
2023-02-09T09:23:41.590Z,7.00
2023-02-09T09:24:42.692Z,7.06
2023-02-09T09:25:43.334Z,7.12
2023-02-09T09:26:43.799Z,7.31
2023-02-09T09:27:44.647Z,7.38
2023-02-09T09:28:45.513Z,7.38
2023-02-09T09:29:46.689Z,7.31
2023-02-09T09:30:47.162Z,7.31
2023-02-09T09:31:48.024Z,7.31
2023-02-09T09:32:50.044Z,7.44
2023-02-09T09:33:49.702Z,7.56
2023-02-09T09:34:50.707Z,7.62
2023-02-09T09:35:51.521Z,7.69
2023-02-09T09:36:52.380Z,7.75
2023-02-09T09:37:53.266Z,7.75
2023-02-09T09:38:55.785Z,7.81
2023-02-09T09:39:54.776Z,8.00
2023-02-09T09:40:55.633Z,8.25
2023-02-09T09:41:56.484Z,8.38
2023-02-09T09:42:57.344Z,8.50
2023-02-09T09:43:58.210Z,8.44
2023-02-09T09:44:59.199Z,8.56
2023-02-09T09:46:00.124Z,8.62
2023-02-09T09:47:00.928Z,8.75
2023-02-09T09:48:01.778Z,8.88
2023-02-09T09:49:02.637Z,9.00
2023-02-09T09:50:03.529Z,9.06
2023-02-09T09:51:04.298Z,9.00
2023-02-09T09:52:05.154Z,8.94
2023-02-09T09:53:05.997Z,8.88
2023-02-09T09:54:06.849Z,8.81
2023-02-09T09:55:08.188Z,8.94
2023-02-09T09:56:08.541Z,8.94
2023-02-09T09:57:09.403Z,8.88
2023-02-09T09:58:10.253Z,8.94
2023-02-09T09:59:11.105Z,9.06
2023-02-09T10:00:11.964Z,9.19
2023-02-09T10:01:12.919Z,9.25
2023-02-09T10:02:14.135Z,9.12
2023-02-09T10:03:14.468Z,9.19
2023-02-09T10:04:15.382Z,9.31
2023-02-09T10:05:16.716Z,9.31
2023-02-09T10:06:17.008Z,9.38
2023-02-09T10:07:19.476Z,9.38
2023-02-09T10:08:18.710Z,9.25
2023-02-09T10:09:19.579Z,9.19
2023-02-09T10:10:20.515Z,9.12
2023-02-09T10:11:21.340Z,9.00
2023-02-09T10:12:22.185Z,8.94
2023-02-09T10:13:23.067Z,8.94
2023-02-09T10:14:23.905Z,8.94
2023-02-09T10:15:24.764Z,8.94
2023-02-09T10:16:25.772Z,9.00
2023-02-09T10:17:26.200Z,9.06
2023-02-09T10:18:27.046Z,9.06
2023-02-09T10:19:27.920Z,9.06
2023-02-09T10:20:29.229Z,9.12
2023-02-09T10:21:29.546Z,9.12
2023-02-09T10:22:30.429Z,9.19
2023-02-09T10:23:31.282Z,9.31
2023-02-09T10:24:32.148Z,9.38
2023-02-09T10:25:33.207Z,9.38
2023-02-09T10:26:33.582Z,9.31
2023-02-09T10:27:34.436Z,9.25
2023-02-09T10:28:35.357Z,9.31
2023-02-09T10:29:36.210Z,9.31
2023-02-09T10:30:37.219Z,9.38
2023-02-09T10:31:38.380Z,9.44
2023-02-09T10:32:39.918Z,9.62
2023-02-09T10:33:39.303Z,9.69
2023-02-09T10:34:40.154Z,9.81
2023-02-09T10:35:41.039Z,9.88
2023-02-09T10:36:41.826Z,9.75
2023-02-09T10:37:42.693Z,9.62
2023-02-09T10:38:43.541Z,9.56
2023-02-09T10:39:44.396Z,9.56
2023-02-09T10:40:45.251Z,9.62
2023-02-09T10:41:46.109Z,9.88
2023-02-09T10:42:46.959Z,10.12
2023-02-09T10:43:47.815Z,10.38
2023-02-09T10:44:48.663Z,10.56
2023-02-09T10:45:49.701Z,10.81
2023-02-09T10:46:50.074Z,10.94
2023-02-09T10:47:50.916Z,11.06
2023-02-09T10:48:51.774Z,11.25
2023-02-09T10:49:53.373Z,11.38
2023-02-09T10:50:53.699Z,11.44
2023-02-09T10:51:54.014Z,11.56
2023-02-09T10:52:54.901Z,11.69
2023-02-09T10:53:55.763Z,11.50
2023-02-09T10:54:56.635Z,11.31
2023-02-09T10:55:57.689Z,11.00
2023-02-09T10:56:58.089Z,10.81
2023-02-09T10:57:58.943Z,10.62
2023-02-09T10:58:59.798Z,10.69
2023-02-09T11:00:00.666Z,10.75
2023-02-09T11:01:01.654Z,10.88
2023-02-09T11:02:02.064Z,11.00
2023-02-09T11:03:02.878Z,11.00
2023-02-09T11:04:03.797Z,11.06
2023-02-09T11:05:04.617Z,11.12
2023-02-09T11:06:05.704Z,11.12
2023-02-09T11:07:06.488Z,11.19
2023-02-09T11:08:07.350Z,11.06
2023-02-09T11:09:08.205Z,10.94
2023-02-09T11:10:12.624Z,10.94
2023-02-09T11:11:10.007Z,10.75
2023-02-09T11:12:10.857Z,10.69
2023-02-09T11:13:11.708Z,10.62
2023-02-09T11:14:12.592Z,10.62
2023-02-09T11:15:13.435Z,10.75
2023-02-09T11:16:14.744Z,10.81
2023-02-09T11:17:15.076Z,10.69
2023-02-09T11:18:15.931Z,10.81
2023-02-09T11:19:16.864Z,11.00
2023-02-09T11:20:17.776Z,11.25
2023-02-09T11:21:18.623Z,11.31
2023-02-09T11:22:19.413Z,11.44
2023-02-09T11:23:20.252Z,11.44
2023-02-09T11:24:21.111Z,11.31
2023-02-09T11:25:21.964Z,11.31
2023-02-09T11:26:23.194Z,11.25
2023-02-09T11:27:23.887Z,11.25
2023-02-09T11:28:24.255Z,11.31
2023-02-09T11:29:25.080Z,11.38
2023-02-09T11:30:26.042Z,11.50
2023-02-09T11:31:27.341Z,11.69
2023-02-09T11:32:27.712Z,11.69
2023-02-09T11:33:28.548Z,11.69
2023-02-09T11:34:29.430Z,11.75
2023-02-09T11:35:30.258Z,11.81
2023-02-09T11:36:31.212Z,11.88
2023-02-09T11:37:32.094Z,11.94
2023-02-09T11:38:32.938Z,11.88
2023-02-09T11:39:33.806Z,11.88
2023-02-09T11:40:34.662Z,12.06
2023-02-09T11:41:35.691Z,12.31
2023-02-09T11:42:36.053Z,12.69
2023-02-09T11:43:36.908Z,12.88
2023-02-09T11:44:37.799Z,12.81
2023-02-09T11:45:38.626Z,12.62
2023-02-09T11:46:39.528Z,12.31
2023-02-09T11:47:40.371Z,12.25
2023-02-09T11:48:41.203Z,12.44
2023-02-09T11:49:42.074Z,12.69
2023-02-09T11:50:42.938Z,12.94
2023-02-09T11:51:44.218Z,13.25
2023-02-09T11:52:44.515Z,13.31
2023-02-09T11:53:45.415Z,13.25
2023-02-09T11:54:46.263Z,13.19
2023-02-09T11:55:47.147Z,13.12
2023-02-09T11:56:48.193Z,12.81
2023-02-09T11:57:48.552Z,12.56
2023-02-09T11:58:49.405Z,12.25
2023-02-09T11:59:50.263Z,12.19
2023-02-09T12:00:57.782Z,12.44
2023-02-09T12:01:52.881Z,12.75
2023-02-09T12:02:52.913Z,13.00
2023-02-09T12:03:53.240Z,13.19
2023-02-09T12:04:54.088Z,13.25
2023-02-09T12:05:54.954Z,13.25
2023-02-09T12:06:56.370Z,13.31
2023-02-09T12:07:56.780Z,13.56
2023-02-09T12:08:57.561Z,13.69
2023-02-09T12:09:58.412Z,13.44
2023-02-09T12:10:59.271Z,13.19
2023-02-09T12:12:00.192Z,13.06
2023-02-09T12:13:01.042Z,13.00
2023-02-09T12:14:01.906Z,12.88
2023-02-09T12:15:02.753Z,12.88
2023-02-09T12:16:03.707Z,12.88
2023-02-09T12:17:04.512Z,12.94
2023-02-09T12:18:05.382Z,13.06
2023-02-09T12:19:06.216Z,13.19
2023-02-09T12:20:07.078Z,13.31
2023-02-09T12:21:07.931Z,13.56
2023-02-09T12:22:09.221Z,13.69
2023-02-09T12:23:09.502Z,13.81
2023-02-09T12:24:10.353Z,13.94
2023-02-09T12:25:11.255Z,14.06
2023-02-09T12:26:12.180Z,14.19
2023-02-09T12:27:13.194Z,14.31
2023-02-09T12:28:13.618Z,14.19
2023-02-09T12:29:14.431Z,13.94
2023-02-09T12:30:15.297Z,13.69
2023-02-09T12:31:16.342Z,13.56
2023-02-09T12:32:16.769Z,13.62
2023-02-09T12:33:17.604Z,13.62
2023-02-09T12:34:18.456Z,13.62
2023-02-09T12:35:19.308Z,13.69
2023-02-09T12:36:20.184Z,13.56
2023-02-09T12:37:27.236Z,13.44
2023-02-09T12:38:22.792Z,13.38
2023-02-09T12:39:24.132Z,13.31
2023-02-09T12:40:23.574Z,13.19
2023-02-09T12:41:24.441Z,13.25
2023-02-09T12:42:25.690Z,13.25
2023-02-09T12:43:26.053Z,13.25
2023-02-09T12:44:26.922Z,13.25
2023-02-09T12:45:27.818Z,13.25
2023-02-09T12:46:28.720Z,13.19
2023-02-09T12:47:29.692Z,13.12
2023-02-09T12:48:30.077Z,13.12
2023-02-09T12:49:30.914Z,13.12
2023-02-09T12:50:31.782Z,13.25
2023-02-09T12:51:32.638Z,13.31
2023-02-09T12:52:33.512Z,13.38
2023-02-09T12:53:34.308Z,13.25
2023-02-09T12:54:35.159Z,13.12
2023-02-09T12:55:36.018Z,13.12
2023-02-09T12:56:36.850Z,13.12
2023-02-09T12:57:38.189Z,12.88
2023-02-09T12:58:38.545Z,12.62
2023-02-09T12:59:39.392Z,12.44
2023-02-09T13:00:40.248Z,12.50
2023-02-09T13:01:41.092Z,12.75
2023-02-09T13:02:41.950Z,13.00
2023-02-09T13:03:42.877Z,13.19
2023-02-09T13:04:43.689Z,13.12
2023-02-09T13:05:44.919Z,12.94
2023-02-09T13:06:45.461Z,13.00
2023-02-09T13:07:46.345Z,12.94
2023-02-09T13:08:47.119Z,12.94
2023-02-09T13:09:47.977Z,13.00
2023-02-09T13:10:48.840Z,12.94
2023-02-09T13:11:49.680Z,12.88
2023-02-09T13:12:50.695Z,12.81
2023-02-09T13:13:51.057Z,12.81
2023-02-09T13:14:51.920Z,12.88
2023-02-09T13:15:52.781Z,13.06
2023-02-09T13:16:53.665Z,13.31
2023-02-09T13:17:54.696Z,13.44
2023-02-09T13:18:55.065Z,13.50
2023-02-09T13:19:55.909Z,13.44
2023-02-09T13:20:56.761Z,13.12
2023-02-09T13:21:57.632Z,13.12
2023-02-09T13:22:58.746Z,13.19
2023-02-09T13:23:59.031Z,13.06
2023-02-09T13:24:59.882Z,12.94